sensor_id;sensor_type;location;lat;lon;timestamp;pressure;altitude;pressure_sealevel;temperature;humidity
73205;BME280;61413;-27.702;153.216;2023-11-21T00:00:55;102010.44;;;21.46;49.97
73205;BME280;61413;-27.702;153.216;2023-11-21T00:03:23;102009.93;;;21.83;49.51
73205;BME280;61413;-27.702;153.216;2023-11-21T00:05:49;102008.94;;;22.10;49.33
73205;BME280;61413;-27.702;153.216;2023-11-21T00:09:50;102004.25;;;22.89;48.76
73205;BME280;61413;-27.702;153.216;2023-11-21T00:12:17;102001.10;;;22.68;48.93
73205;BME280;61413;-27.702;153.216;2023-11-21T00:14:43;102001.92;;;23.26;48.85
73205;BME280;61413;-27.702;153.216;2023-11-21T00:17:09;102000.72;;;22.81;48.52
73205;BME280;61413;-27.702;153.216;2023-11-21T00:19:35;101996.91;;;23.83;47.41
73205;BME280;61413;-27.702;153.216;2023-11-21T00:22:01;101995.09;;;24.19;47.22
73205;BME280;61413;-27.702;153.216;2023-11-21T00:24:28;101994.33;;;24.95;46.79
73205;BME280;61413;-27.702;153.216;2023-11-21T00:26:54;101995.54;;;24.32;47.09
73205;BME280;61413;-27.702;153.216;2023-11-21T00:29:20;101992.31;;;24.07;47.15
73205;BME280;61413;-27.702;153.216;2023-11-21T00:31:47;101988.04;;;24.30;46.55
73205;BME280;61413;-27.702;153.216;2023-11-21T00:34:13;101981.31;;;24.66;46.47
73205;BME280;61413;-27.702;153.216;2023-11-21T00:36:40;101972.82;;;26.17;45.00
73205;BME280;61413;-27.702;153.216;2023-11-21T00:39:06;101972.42;;;26.03;44.99
73205;BME280;61413;-27.702;153.216;2023-11-21T00:41:33;101964.09;;;25.81;44.22
73205;BME280;61413;-27.702;153.216;2023-11-21T00:43:59;101962.90;;;25.96;43.86
73205;BME280;61413;-27.702;153.216;2023-11-21T00:46:26;101962.74;;;26.33;44.33
73205;BME280;61413;-27.702;153.216;2023-11-21T00:48:52;101959.53;;;25.56;44.93
73205;BME280;61413;-27.702;153.216;2023-11-21T00:51:18;101954.15;;;24.74;45.09
73205;BME280;61413;-27.702;153.216;2023-11-21T00:53:44;101949.74;;;24.57;44.60
73205;BME280;61413;-27.702;153.216;2023-11-21T00:56:10;101949.91;;;24.84;45.28
73205;BME280;61413;-27.702;153.216;2023-11-21T00:58:36;101948.48;;;24.52;45.69
73205;BME280;61413;-27.702;153.216;2023-11-21T01:01:03;101952.11;;;24.02;45.42
73205;BME280;61413;-27.702;153.216;2023-11-21T01:05:14;101950.14;;;23.93;45.88
73205;BME280;61413;-27.702;153.216;2023-11-21T01:07:40;101948.17;;;23.81;46.31
73205;BME280;61413;-27.702;153.216;2023-11-21T01:10:07;101948.53;;;23.25;46.51
73205;BME280;61413;-27.702;153.216;2023-11-21T01:12:33;101946.20;;;23.11;46.45
73205;BME280;61413;-27.702;153.216;2023-11-21T01:15:00;101942.26;;;23.45;46.76
73205;BME280;61413;-27.702;153.216;2023-11-21T01:17:26;101940.45;;;23.54;46.92
73205;BME280;61413;-27.702;153.216;2023-11-21T01:19:52;101937.95;;;23.48;46.84
73205;BME280;61413;-27.702;153.216;2023-11-21T01:22:18;101936.99;;;23.52;46.87
73205;BME280;61413;-27.702;153.216;2023-11-21T01:24:44;101932.63;;;23.50;46.76
73205;BME280;61413;-27.702;153.216;2023-11-21T01:27:11;101932.42;;;23.76;46.56
73205;BME280;61413;-27.702;153.216;2023-11-21T01:29:38;101929.67;;;23.97;46.13
73205;BME280;61413;-27.702;153.216;2023-11-21T01:32:05;101929.03;;;24.18;45.74
73205;BME280;61413;-27.702;153.216;2023-11-21T01:34:32;101924.07;;;24.32;45.47
73205;BME280;61413;-27.702;153.216;2023-11-21T01:36:58;101918.73;;;24.51;45.34
73205;BME280;61413;-27.702;153.216;2023-11-21T01:39:24;101915.31;;;25.02;44.98
73205;BME280;61413;-27.702;153.216;2023-11-21T01:43:40;101910.14;;;25.43;44.62
73205;BME280;61413;-27.702;153.216;2023-11-21T01:46:07;101911.54;;;24.93;44.43
73205;BME280;61413;-27.702;153.216;2023-11-21T01:48:34;101908.47;;;24.50;43.76
73205;BME280;61413;-27.702;153.216;2023-11-21T01:51:00;101908.60;;;24.79;43.01
73205;BME280;61413;-27.702;153.216;2023-11-21T01:53:27;101908.64;;;25.25;42.64
73205;BME280;61413;-27.702;153.216;2023-11-21T01:55:53;101910.92;;;24.78;42.68
73205;BME280;61413;-27.702;153.216;2023-11-21T01:58:21;101906.65;;;24.69;43.21
73205;BME280;61413;-27.702;153.216;2023-11-21T02:00:47;101907.12;;;23.89;43.42
73205;BME280;61413;-27.702;153.216;2023-11-21T02:03:14;101908.15;;;23.58;43.63
73205;BME280;61413;-27.702;153.216;2023-11-21T02:05:41;101905.07;;;23.15;44.15
73205;BME280;61413;-27.702;153.216;2023-11-21T02:11:04;101909.85;;;23.44;44.53
73205;BME280;61413;-27.702;153.216;2023-11-21T02:13:33;101908.02;;;23.70;44.39
73205;BME280;61413;-27.702;153.216;2023-11-21T02:15:55;101909.60;;;23.92;43.86
73205;BME280;61413;-27.702;153.216;2023-11-21T02:19:31;101909.93;;;24.13;43.61
73205;BME280;61413;-27.702;153.216;2023-11-21T02:21:58;101898.78;;;24.60;42.82
73205;BME280;61413;-27.702;153.216;2023-11-21T02:24:26;101896.57;;;25.21;42.21
73205;BME280;61413;-27.702;153.216;2023-11-21T02:28:55;101896.34;;;24.94;43.06
73205;BME280;61413;-27.702;153.216;2023-11-21T02:34:15;101890.88;;;24.28;43.33
73205;BME280;61413;-27.702;153.216;2023-11-21T02:36:41;101887.95;;;24.40;42.83
73205;BME280;61413;-27.702;153.216;2023-11-21T02:39:07;101887.05;;;24.93;42.03
73205;BME280;61413;-27.702;153.216;2023-11-21T02:41:34;101888.67;;;24.77;42.02
73205;BME280;61413;-27.702;153.216;2023-11-21T02:44:00;101885.75;;;24.28;42.44
73205;BME280;61413;-27.702;153.216;2023-11-21T02:46:26;101881.41;;;24.36;42.61
73205;BME280;61413;-27.702;153.216;2023-11-21T02:48:52;101877.11;;;24.75;42.54
73205;BME280;61413;-27.702;153.216;2023-11-21T02:51:19;101868.69;;;24.86;42.13
73205;BME280;61413;-27.702;153.216;2023-11-21T02:55:37;101863.24;;;24.91;42.09
73205;BME280;61413;-27.702;153.216;2023-11-21T02:58:03;101853.70;;;24.89;41.91
73205;BME280;61413;-27.702;153.216;2023-11-21T03:00:30;101852.93;;;25.15;41.65
73205;BME280;61413;-27.702;153.216;2023-11-21T03:02:57;101852.57;;;25.57;41.04
73205;BME280;61413;-27.702;153.216;2023-11-21T03:05:23;101852.36;;;25.35;40.85
73205;BME280;61413;-27.702;153.216;2023-11-21T03:07:50;101856.59;;;25.63;40.73
73205;BME280;61413;-27.702;153.216;2023-11-21T03:10:16;101855.62;;;25.12;40.24
73205;BME280;61413;-27.702;153.216;2023-11-21T03:12:42;101851.39;;;25.51;40.27
73205;BME280;61413;-27.702;153.216;2023-11-21T03:15:09;101846.38;;;24.75;40.82
73205;BME280;61413;-27.702;153.216;2023-11-21T03:17:35;101848.61;;;24.93;41.12
73205;BME280;61413;-27.702;153.216;2023-11-21T03:20:02;101854.35;;;24.00;41.38
73205;BME280;61413;-27.702;153.216;2023-11-21T03:22:28;101851.34;;;24.34;41.33
73205;BME280;61413;-27.702;153.216;2023-11-21T03:27:02;101851.84;;;24.46;41.63
73205;BME280;61413;-27.702;153.216;2023-11-21T03:29:28;101855.42;;;24.66;41.10
73205;BME280;61413;-27.702;153.216;2023-11-21T03:31:54;101851.45;;;24.86;40.51
73205;BME280;61413;-27.702;153.216;2023-11-21T03:34:25;101849.13;;;25.17;39.87
73205;BME280;61413;-27.702;153.216;2023-11-21T03:36:48;101841.52;;;24.92;39.61
73205;BME280;61413;-27.702;153.216;2023-11-21T03:39:15;101843.34;;;25.63;39.32
73205;BME280;61413;-27.702;153.216;2023-11-21T03:41:41;101838.71;;;25.63;39.46
73205;BME280;61413;-27.702;153.216;2023-11-21T03:44:08;101835.78;;;24.91;38.79
73205;BME280;61413;-27.702;153.216;2023-11-21T03:49:54;101823.17;;;25.96;38.56
73205;BME280;61413;-27.702;153.216;2023-11-21T03:52:20;101828.73;;;26.22;38.53
73205;BME280;61413;-27.702;153.216;2023-11-21T03:54:47;101824.71;;;26.31;37.59
73205;BME280;61413;-27.702;153.216;2023-11-21T03:57:14;101818.48;;;26.78;37.42
73205;BME280;61413;-27.702;153.216;2023-11-21T03:59:42;101817.22;;;25.72;37.69
73205;BME280;61413;-27.702;153.216;2023-11-21T04:02:09;101819.08;;;25.45;37.55
73205;BME280;61413;-27.702;153.216;2023-11-21T04:04:35;101817.15;;;25.21;37.79
73205;BME280;61413;-27.702;153.216;2023-11-21T04:07:02;101815.95;;;25.04;38.04
73205;BME280;61413;-27.702;153.216;2023-11-21T04:09:29;101815.27;;;25.33;38.04
73205;BME280;61413;-27.702;153.216;2023-11-21T04:11:56;101819.55;;;25.43;37.80
73205;BME280;61413;-27.702;153.216;2023-11-21T04:14:22;101818.29;;;25.25;37.58
73205;BME280;61413;-27.702;153.216;2023-11-21T04:16:49;101813.88;;;25.25;37.30
73205;BME280;61413;-27.702;153.216;2023-11-21T04:19:15;101811.55;;;25.31;37.31
73205;BME280;61413;-27.702;153.216;2023-11-21T04:21:42;101805.35;;;24.30;37.88
73205;BME280;61413;-27.702;153.216;2023-11-21T04:24:09;101804.68;;;25.00;37.94
73205;BME280;61413;-27.702;153.216;2023-11-21T04:26:35;101800.74;;;25.38;37.63
73205;BME280;61413;-27.702;153.216;2023-11-21T04:29:02;101800.74;;;25.45;37.39
73205;BME280;61413;-27.702;153.216;2023-11-21T04:31:28;101801.13;;;25.45;37.31
73205;BME280;61413;-27.702;153.216;2023-11-21T04:33:55;101804.49;;;25.13;37.52
73205;BME280;61413;-27.702;153.216;2023-11-21T04:36:21;101803.24;;;25.67;37.41
73205;BME280;61413;-27.702;153.216;2023-11-21T04:38:47;101802.23;;;25.02;37.62
73205;BME280;61413;-27.702;153.216;2023-11-21T04:41:13;101799.23;;;25.57;37.60
73205;BME280;61413;-27.702;153.216;2023-11-21T04:43:40;101800.88;;;25.12;37.29
73205;BME280;61413;-27.702;153.216;2023-11-21T04:46:06;101806.81;;;24.79;37.07
73205;BME280;61413;-27.702;153.216;2023-11-21T04:51:22;101799.73;;;24.36;38.14
73205;BME280;61413;-27.702;153.216;2023-11-21T04:53:49;101792.74;;;24.00;38.41
73205;BME280;61413;-27.702;153.216;2023-11-21T04:56:15;101788.94;;;23.94;38.60
73205;BME280;61413;-27.702;153.216;2023-11-21T04:58:42;101787.48;;;23.72;38.95
73205;BME280;61413;-27.702;153.216;2023-11-21T05:01:09;101785.83;;;23.34;39.17
73205;BME280;61413;-27.702;153.216;2023-11-21T05:03:35;101777.91;;;23.58;38.98
73205;BME280;61413;-27.702;153.216;2023-11-21T05:06:03;101772.13;;;23.42;39.19
73205;BME280;61413;-27.702;153.216;2023-11-21T05:08:29;101771.34;;;23.37;39.60
73205;BME280;61413;-27.702;153.216;2023-11-21T05:10:55;101770.17;;;23.42;39.72
73205;BME280;61413;-27.702;153.216;2023-11-21T05:13:22;101764.83;;;23.25;39.80
73205;BME280;61413;-27.702;153.216;2023-11-21T05:15:49;101762.70;;;23.65;40.00
73205;BME280;61413;-27.702;153.216;2023-11-21T05:18:15;101760.43;;;23.63;40.10
73205;BME280;61413;-27.702;153.216;2023-11-21T05:20:42;101758.76;;;23.26;40.45
73205;BME280;61413;-27.702;153.216;2023-11-21T05:23:08;101756.20;;;23.24;40.32
73205;BME280;61413;-27.702;153.216;2023-11-21T05:25:35;101754.44;;;23.33;40.11
73205;BME280;61413;-27.702;153.216;2023-11-21T05:28:01;101751.72;;;23.73;40.10
73205;BME280;61413;-27.702;153.216;2023-11-21T05:30:27;101750.76;;;23.46;39.95
73205;BME280;61413;-27.702;153.216;2023-11-21T05:32:54;101744.89;;;23.29;40.38
73205;BME280;61413;-27.702;153.216;2023-11-21T05:35:20;101739.81;;;23.01;40.46
73205;BME280;61413;-27.702;153.216;2023-11-21T05:37:47;101740.92;;;22.97;40.55
73205;BME280;61413;-27.702;153.216;2023-11-21T05:41:51;101740.00;;;23.36;41.06
73205;BME280;61413;-27.702;153.216;2023-11-21T05:44:19;101732.21;;;23.42;40.91
73205;BME280;61413;-27.702;153.216;2023-11-21T05:46:45;101730.19;;;23.20;40.65
73205;BME280;61413;-27.702;153.216;2023-11-21T05:50:15;101732.35;;;23.05;40.92
73205;BME280;61413;-27.702;153.216;2023-11-21T05:55:34;101733.36;;;22.69;41.82
73205;BME280;61413;-27.702;153.216;2023-11-21T05:58:00;101730.25;;;22.55;41.73
73205;BME280;61413;-27.702;153.216;2023-11-21T06:00:27;101732.08;;;22.29;42.02
73205;BME280;61413;-27.702;153.216;2023-11-21T06:02:54;101732.13;;;22.38;41.99
73205;BME280;61413;-27.702;153.216;2023-11-21T06:05:21;101735.55;;;22.49;41.91
73205;BME280;61413;-27.702;153.216;2023-11-21T06:07:47;101733.91;;;22.46;42.19
73205;BME280;61413;-27.702;153.216;2023-11-21T06:12:56;101733.16;;;22.60;42.38
73205;BME280;61413;-27.702;153.216;2023-11-21T06:16:21;101742.26;;;22.61;42.63
73205;BME280;61413;-27.702;153.216;2023-11-21T06:18:47;101750.40;;;22.32;42.56
73205;BME280;61413;-27.702;153.216;2023-11-21T06:21:15;101749.40;;;22.60;42.16
73205;BME280;61413;-27.702;153.216;2023-11-21T06:23:42;101745.70;;;22.57;42.12
73205;BME280;61413;-27.702;153.216;2023-11-21T06:26:08;101741.92;;;22.50;42.20
73205;BME280;61413;-27.702;153.216;2023-11-21T06:28:34;101740.54;;;22.74;42.10
73205;BME280;61413;-27.702;153.216;2023-11-21T06:31:00;101734.03;;;23.28;41.83
73205;BME280;61413;-27.702;153.216;2023-11-21T06:33:36;101728.27;;;23.24;41.54
73205;BME280;61413;-27.702;153.216;2023-11-21T06:35:54;101725.39;;;23.38;41.20
73205;BME280;61413;-27.702;153.216;2023-11-21T06:38:20;101730.33;;;23.47;41.36
73205;BME280;61413;-27.702;153.216;2023-11-21T06:40:46;101740.25;;;22.90;41.53
73205;BME280;61413;-27.702;153.216;2023-11-21T06:43:12;101753.83;;;23.12;41.67
73205;BME280;61413;-27.702;153.216;2023-11-21T06:45:38;101758.80;;;23.02;41.73
73205;BME280;61413;-27.702;153.216;2023-11-21T06:48:04;101760.56;;;22.63;41.85
73205;BME280;61413;-27.702;153.216;2023-11-21T06:50:30;101762.92;;;23.02;42.00
73205;BME280;61413;-27.702;153.216;2023-11-21T06:52:56;101765.98;;;22.66;42.15
73205;BME280;61413;-27.702;153.216;2023-11-21T06:55:23;101767.26;;;22.73;42.21
73205;BME280;61413;-27.702;153.216;2023-11-21T06:57:49;101766.41;;;22.80;42.25
73205;BME280;61413;-27.702;153.216;2023-11-21T07:00:17;101765.21;;;22.50;42.36
73205;BME280;61413;-27.702;153.216;2023-11-21T07:02:43;101764.55;;;22.59;42.32
73205;BME280;61413;-27.702;153.216;2023-11-21T07:05:09;101761.73;;;22.59;42.43
73205;BME280;61413;-27.702;153.216;2023-11-21T07:07:36;101761.72;;;22.56;42.36
73205;BME280;61413;-27.702;153.216;2023-11-21T07:10:02;101765.16;;;22.67;42.43
73205;BME280;61413;-27.702;153.216;2023-11-21T07:12:29;101771.31;;;22.74;42.50
73205;BME280;61413;-27.702;153.216;2023-11-21T07:14:55;101777.16;;;22.43;42.48
73205;BME280;61413;-27.702;153.216;2023-11-21T07:17:21;101782.55;;;22.38;42.56
73205;BME280;61413;-27.702;153.216;2023-11-21T07:19:48;101786.75;;;22.36;42.54
73205;BME280;61413;-27.702;153.216;2023-11-21T07:22:14;101792.78;;;22.68;42.49
73205;BME280;61413;-27.702;153.216;2023-11-21T07:24:40;101799.12;;;22.45;42.42
73205;BME280;61413;-27.702;153.216;2023-11-21T07:28:56;101812.48;;;22.27;42.76
73205;BME280;61413;-27.702;153.216;2023-11-21T07:31:22;101819.11;;;22.48;42.61
73205;BME280;61413;-27.702;153.216;2023-11-21T07:33:49;101817.28;;;22.39;42.95
73205;BME280;61413;-27.702;153.216;2023-11-21T07:36:16;101821.48;;;22.31;42.87
73205;BME280;61413;-27.702;153.216;2023-11-21T07:38:42;101826.47;;;22.13;43.15
73205;BME280;61413;-27.702;153.216;2023-11-21T07:41:10;101830.54;;;22.39;43.31
73205;BME280;61413;-27.702;153.216;2023-11-21T07:43:37;101835.71;;;22.16;43.21
73205;BME280;61413;-27.702;153.216;2023-11-21T07:46:03;101834.47;;;22.19;43.32
73205;BME280;61413;-27.702;153.216;2023-11-21T07:48:30;101833.97;;;22.03;43.31
73205;BME280;61413;-27.702;153.216;2023-11-21T07:50:57;101840.71;;;22.50;43.33
73205;BME280;61413;-27.702;153.216;2023-11-21T07:53:24;101845.91;;;21.99;43.47
73205;BME280;61413;-27.702;153.216;2023-11-21T07:55:50;101846.03;;;22.21;43.31
73205;BME280;61413;-27.702;153.216;2023-11-21T07:58:16;101844.51;;;22.24;43.54
73205;BME280;61413;-27.702;153.216;2023-11-21T08:00:42;101841.14;;;22.10;43.37
73205;BME280;61413;-27.702;153.216;2023-11-21T08:03:08;101843.11;;;22.65;43.04
73205;BME280;61413;-27.702;153.216;2023-11-21T08:05:34;101840.90;;;22.48;42.90
73205;BME280;61413;-27.702;153.216;2023-11-21T08:08:01;101842.20;;;22.88;42.57
73205;BME280;61413;-27.702;153.216;2023-11-21T08:10:27;101844.17;;;22.59;42.45
73205;BME280;61413;-27.702;153.216;2023-11-21T08:12:53;101849.08;;;22.47;42.39
73205;BME280;61413;-27.702;153.216;2023-11-21T08:16:25;101861.93;;;22.78;42.48
73205;BME280;61413;-27.702;153.216;2023-11-21T08:18:51;101867.58;;;22.65;42.42
73205;BME280;61413;-27.702;153.216;2023-11-21T08:21:17;101866.57;;;22.71;42.35
73205;BME280;61413;-27.702;153.216;2023-11-21T08:23:44;101872.71;;;22.48;42.31
73205;BME280;61413;-27.702;153.216;2023-11-21T08:26:10;101876.00;;;22.86;42.35
73205;BME280;61413;-27.702;153.216;2023-11-21T08:28:37;101872.62;;;22.39;42.21
73205;BME280;61413;-27.702;153.216;2023-11-21T08:31:03;101870.23;;;22.37;42.21
73205;BME280;61413;-27.702;153.216;2023-11-21T08:33:29;101875.58;;;22.44;42.28
73205;BME280;61413;-27.702;153.216;2023-11-21T08:35:55;101879.78;;;22.55;42.29
73205;BME280;61413;-27.702;153.216;2023-11-21T08:38:22;101882.15;;;22.23;42.31
73205;BME280;61413;-27.702;153.216;2023-11-21T08:40:48;101886.94;;;22.69;42.19
73205;BME280;61413;-27.702;153.216;2023-11-21T08:43:14;101893.35;;;22.56;42.24
73205;BME280;61413;-27.702;153.216;2023-11-21T08:45:40;101894.97;;;22.41;42.27
73205;BME280;61413;-27.702;153.216;2023-11-21T08:48:06;101890.34;;;22.50;42.24
73205;BME280;61413;-27.702;153.216;2023-11-21T08:54:10;101908.47;;;22.64;42.78
73205;BME280;61413;-27.702;153.216;2023-11-21T08:57:35;101901.74;;;22.36;42.80
73205;BME280;61413;-27.702;153.216;2023-11-21T09:00:01;101901.44;;;22.42;42.67
73205;BME280;61413;-27.702;153.216;2023-11-21T09:02:28;101902.84;;;22.09;42.56
73205;BME280;61413;-27.702;153.216;2023-11-21T09:05:04;101908.46;;;22.01;42.69
73205;BME280;61413;-27.702;153.216;2023-11-21T09:07:22;101908.65;;;22.21;42.67
73205;BME280;61413;-27.702;153.216;2023-11-21T09:09:48;101906.27;;;22.31;42.70
73205;BME280;61413;-27.702;153.216;2023-11-21T09:12:14;101903.75;;;22.19;42.77
73205;BME280;61413;-27.702;153.216;2023-11-21T09:14:40;101904.71;;;22.12;42.80
73205;BME280;61413;-27.702;153.216;2023-11-21T09:17:06;101911.32;;;21.98;42.92
73205;BME280;61413;-27.702;153.216;2023-11-21T09:19:32;101914.39;;;22.00;42.85
73205;BME280;61413;-27.702;153.216;2023-11-21T09:21:57;101917.81;;;22.24;42.87
73205;BME280;61413;-27.702;153.216;2023-11-21T09:24:24;101918.88;;;21.93;42.94
73205;BME280;61413;-27.702;153.216;2023-11-21T09:26:50;101922.44;;;21.98;42.97
73205;BME280;61413;-27.702;153.216;2023-11-21T09:29:16;101924.92;;;22.01;42.97
73205;BME280;61413;-27.702;153.216;2023-11-21T09:33:05;101919.14;;;21.84;43.16
73205;BME280;61413;-27.702;153.216;2023-11-21T09:35:32;101916.82;;;21.97;43.14
73205;BME280;61413;-27.702;153.216;2023-11-21T09:37:59;101921.41;;;21.97;43.14
73205;BME280;61413;-27.702;153.216;2023-11-21T09:40:25;101922.57;;;21.99;43.08
73205;BME280;61413;-27.702;153.216;2023-11-21T09:42:56;101930.86;;;21.81;43.23
73205;BME280;61413;-27.702;153.216;2023-11-21T09:45:25;101938.17;;;21.61;43.32
73205;BME280;61413;-27.702;153.216;2023-11-21T09:47:47;101942.06;;;21.60;43.52
73205;BME280;61413;-27.702;153.216;2023-11-21T09:50:10;101945.35;;;21.54;43.69
73205;BME280;61413;-27.702;153.216;2023-11-21T09:52:44;101942.79;;;21.56;43.90
73205;BME280;61413;-27.702;153.216;2023-11-21T09:55:04;101937.49;;;21.47;43.90
73205;BME280;61413;-27.702;153.216;2023-11-21T09:57:31;101932.41;;;21.65;43.95
73205;BME280;61413;-27.702;153.216;2023-11-21T09:59:57;101932.31;;;21.31;44.07
73205;BME280;61413;-27.702;153.216;2023-11-21T10:02:26;101933.12;;;21.46;44.13
73205;BME280;61413;-27.702;153.216;2023-11-21T10:04:53;101927.70;;;21.14;44.42
73205;BME280;61413;-27.702;153.216;2023-11-21T10:07:21;101923.08;;;21.16;44.59
73205;BME280;61413;-27.702;153.216;2023-11-21T10:09:47;101923.63;;;21.07;44.70
73205;BME280;61413;-27.702;153.216;2023-11-21T10:12:13;101928.17;;;21.14;44.62
73205;BME280;61413;-27.702;153.216;2023-11-21T10:14:42;101931.01;;;21.32;44.67
73205;BME280;61413;-27.702;153.216;2023-11-21T10:18:05;101936.45;;;21.61;44.59
73205;BME280;61413;-27.702;153.216;2023-11-21T10:22:28;101951.13;;;21.23;44.67
73205;BME280;61413;-27.702;153.216;2023-11-21T10:24:55;101955.12;;;21.28;44.85
73205;BME280;61413;-27.702;153.216;2023-11-21T10:27:21;101956.18;;;20.98;45.06
73205;BME280;61413;-27.702;153.216;2023-11-21T10:29:48;101957.66;;;21.06;44.91
73205;BME280;61413;-27.702;153.216;2023-11-21T10:32:14;101959.92;;;21.04;45.21
73205;BME280;61413;-27.702;153.216;2023-11-21T10:34:40;101960.56;;;21.48;45.10
73205;BME280;61413;-27.702;153.216;2023-11-21T10:37:13;101964.07;;;21.39;45.37
73205;BME280;61413;-27.702;153.216;2023-11-21T10:39:36;101960.27;;;21.47;45.05
73205;BME280;61413;-27.702;153.216;2023-11-21T10:42:03;101952.31;;;21.33;44.92
73205;BME280;61413;-27.702;153.216;2023-11-21T10:44:29;101946.85;;;21.51;44.83
73205;BME280;61413;-27.702;153.216;2023-11-21T10:46:57;101944.80;;;21.38;44.72
73205;BME280;61413;-27.702;153.216;2023-11-21T10:49:25;101945.56;;;21.73;44.64
73205;BME280;61413;-27.702;153.216;2023-11-21T10:51:51;101949.46;;;21.52;44.59
73205;BME280;61413;-27.702;153.216;2023-11-21T10:54:21;101952.80;;;21.60;44.61
73205;BME280;61413;-27.702;153.216;2023-11-21T10:56:49;101951.00;;;21.33;44.67
73205;BME280;61413;-27.702;153.216;2023-11-21T10:59:13;101948.53;;;21.29;45.24
73205;BME280;61413;-27.702;153.216;2023-11-21T11:01:39;101949.91;;;20.86;45.67
73205;BME280;61413;-27.702;153.216;2023-11-21T11:04:08;101943.97;;;21.02;46.00
73205;BME280;61413;-27.702;153.216;2023-11-21T11:06:35;101939.91;;;20.85;46.24
73205;BME280;61413;-27.702;153.216;2023-11-21T11:09:02;101945.55;;;21.19;46.28
73205;BME280;61413;-27.702;153.216;2023-11-21T11:11:30;101948.17;;;21.16;46.36
73205;BME280;61413;-27.702;153.216;2023-11-21T11:13:58;101945.69;;;21.37;46.27
73205;BME280;61413;-27.702;153.216;2023-11-21T11:16:25;101949.66;;;21.00;46.13
73205;BME280;61413;-27.702;153.216;2023-11-21T11:18:50;101955.52;;;21.51;45.90
73205;BME280;61413;-27.702;153.216;2023-11-21T11:21:27;101959.92;;;21.55;45.90
73205;BME280;61413;-27.702;153.216;2023-11-21T11:23:53;101961.94;;;21.52;45.79
73205;BME280;61413;-27.702;153.216;2023-11-21T11:27:57;101961.94;;;21.53;45.83
73205;BME280;61413;-27.702;153.216;2023-11-21T11:30:30;101962.15;;;21.37;45.65
73205;BME280;61413;-27.702;153.216;2023-11-21T11:32:58;101963.51;;;21.66;45.42
73205;BME280;61413;-27.702;153.216;2023-11-21T11:35:23;101961.68;;;21.69;45.30
73205;BME280;61413;-27.702;153.216;2023-11-21T11:37:39;101955.98;;;21.52;45.16
73205;BME280;61413;-27.702;153.216;2023-11-21T11:40:08;101954.04;;;21.50;44.98
73205;BME280;61413;-27.702;153.216;2023-11-21T11:42:34;101958.21;;;21.77;44.99
73205;BME280;61413;-27.702;153.216;2023-11-21T11:45:00;101959.79;;;21.49;44.90
73205;BME280;61413;-27.702;153.216;2023-11-21T11:47:28;101957.20;;;21.63;44.57
73205;BME280;61413;-27.702;153.216;2023-11-21T11:50:01;101954.43;;;21.56;44.41
73205;BME280;61413;-27.702;153.216;2023-11-21T11:52:40;101954.77;;;21.66;44.30
73205;BME280;61413;-27.702;153.216;2023-11-21T11:54:51;101951.25;;;21.68;44.21
73205;BME280;61413;-27.702;153.216;2023-11-21T11:57:18;101946.41;;;21.68;44.42
73205;BME280;61413;-27.702;153.216;2023-11-21T12:00:14;101944.28;;;21.43;44.79
73205;BME280;61413;-27.702;153.216;2023-11-21T12:02:13;101942.31;;;21.39;44.87
73205;BME280;61413;-27.702;153.216;2023-11-21T12:04:42;101945.31;;;21.51;44.90
73205;BME280;61413;-27.702;153.216;2023-11-21T12:07:06;101941.24;;;21.64;44.72
73205;BME280;61413;-27.702;153.216;2023-11-21T12:09:32;101937.47;;;21.73;44.54
73205;BME280;61413;-27.702;153.216;2023-11-21T12:11:59;101938.65;;;21.65;44.38
73205;BME280;61413;-27.702;153.216;2023-11-21T12:14:25;101940.50;;;21.90;44.22
73205;BME280;61413;-27.702;153.216;2023-11-21T12:16:52;101936.05;;;21.60;44.18
73205;BME280;61413;-27.702;153.216;2023-11-21T12:19:21;101932.74;;;21.77;44.11
73205;BME280;61413;-27.702;153.216;2023-11-21T12:21:48;101931.88;;;21.71;43.86
73205;BME280;61413;-27.702;153.216;2023-11-21T12:24:14;101927.41;;;21.59;43.81
73205;BME280;61413;-27.702;153.216;2023-11-21T12:26:41;101925.35;;;21.80;43.86
73205;BME280;61413;-27.702;153.216;2023-11-21T12:29:07;101922.88;;;21.62;44.04
73205;BME280;61413;-27.702;153.216;2023-11-21T12:31:34;101921.95;;;21.94;43.95
73205;BME280;61413;-27.702;153.216;2023-11-21T12:34:00;101921.18;;;21.84;43.89
73205;BME280;61413;-27.702;153.216;2023-11-21T12:38:08;101913.93;;;21.77;44.10
73205;BME280;61413;-27.702;153.216;2023-11-21T12:40:34;101914.58;;;21.89;44.10
73205;BME280;61413;-27.702;153.216;2023-11-21T12:43:01;101917.36;;;21.88;43.99
73205;BME280;61413;-27.702;153.216;2023-11-21T12:45:29;101920.98;;;21.61;44.20
73205;BME280;61413;-27.702;153.216;2023-11-21T12:47:58;101920.63;;;21.56;44.17
73205;BME280;61413;-27.702;153.216;2023-11-21T12:50:23;101919.10;;;21.96;44.06
73205;BME280;61413;-27.702;153.216;2023-11-21T12:52:50;101916.07;;;21.99;44.02
73205;BME280;61413;-27.702;153.216;2023-11-21T12:55:18;101913.78;;;21.83;43.92
73205;BME280;61413;-27.702;153.216;2023-11-21T12:57:45;101912.51;;;22.00;43.82
73205;BME280;61413;-27.702;153.216;2023-11-21T13:00:12;101911.04;;;21.61;43.97
73205;BME280;61413;-27.702;153.216;2023-11-21T13:02:40;101908.02;;;22.02;44.05
73205;BME280;61413;-27.702;153.216;2023-11-21T13:05:07;101903.88;;;21.92;43.96